.
WxDataArchive / Data Records for 2011-12-21
2011-12-20 December 2011 2011-12-22

Data Records for Wednesday, 21 December 2011

Time	Temp	Chill	HIndex	Humid	Dewpt	 Wind 	HiWind	WindDir	Rain 	Barom 
-----	----	-----	------	-----	-----	------	------	-------	-----	----- 
00:00	38.0	38.0	38.0	97	37.2	0	1	90	0.00	29.844 
00:05	38.0	38.0	38.0	97	37.2	0	0	---	0.00	29.844 
00:10	38.2	38.2	38.2	97	37.4	0	0	---	0.00	29.844 
00:15	38.3	38.3	38.3	97	37.5	0	1	90	0.00	29.842 
00:20	38.6	38.6	38.6	97	37.8	1	2	90	0.00	29.842 
00:25	38.8	38.8	38.8	97	38.0	1	2	90	0.00	29.842 
00:30	38.8	38.8	38.8	97	38.0	1	3	90	0.00	29.829 
00:35	38.8	38.8	38.8	97	38.0	1	3	90	0.01	29.829 
00:40	38.9	38.9	38.9	97	38.1	1	2	90	0.00	29.829 
00:45	38.9	38.9	38.9	97	38.1	0	2	90	0.00	29.818 
00:50	38.9	38.9	38.9	97	38.1	1	2	90	0.00	29.818 
00:55	38.9	38.9	38.9	97	38.1	1	2	90	0.00	29.818 
01:00	38.9	38.9	38.9	97	38.1	1	2	90	0.00	29.810 
01:05	38.9	38.9	38.9	97	38.1	1	3	90	0.00	29.810 
01:10	39.1	39.1	39.1	97	38.3	0	2	90	0.00	29.810 
01:15	39.1	39.1	39.1	97	38.3	0	2	90	0.00	29.795 
01:20	39.1	39.1	39.1	97	38.3	1	2	90	0.00	29.795 
01:25	39.1	39.1	39.1	97	38.3	1	3	90	0.00	29.795 
01:30	39.2	39.2	39.2	97	38.4	1	3	90	0.00	29.783 
01:35	39.2	39.2	39.2	97	38.4	1	3	90	0.01	29.783 
01:40	39.3	39.3	39.3	97	38.5	0	1	90	0.00	29.783 
01:45	39.3	39.3	39.3	97	38.5	0	2	90	0.00	29.780 
01:50	39.5	39.5	39.5	97	38.7	0	2	90	0.00	29.780 
01:55	39.5	39.5	39.5	97	38.7	0	2	90	0.00	29.780 
02:00	39.5	39.5	39.5	97	38.7	0	3	90	0.00	29.774 
02:05	39.6	39.6	39.6	97	38.8	0	2	90	0.00	29.774 
02:10	39.6	39.6	39.6	97	38.8	0	2	90	0.00	29.774 
02:15	39.8	39.8	39.8	97	39.0	0	1	90	0.00	29.777 
02:20	39.8	39.8	39.8	97	39.0	0	1	90	0.01	29.777 
02:25	39.9	39.9	39.9	97	39.1	0	0	---	0.00	29.777 
02:30	40.1	40.1	40.1	97	39.3	0	1	90	0.01	29.775 
02:35	40.2	40.2	40.2	97	39.4	0	1	90	0.00	29.775 
02:40	40.2	40.2	40.2	97	39.4	0	1	90	0.00	29.775 
02:45	40.3	40.3	40.3	97	39.5	0	2	90	0.00	29.753 
02:50	40.3	40.3	40.3	97	39.5	0	0	---	0.00	29.753 
02:55	40.3	40.3	40.3	97	39.5	0	0	---	0.00	29.753 
03:00	40.3	40.3	40.3	97	39.5	0	0	---	0.00	29.747 
03:05	40.3	40.3	40.3	97	39.5	0	0	---	0.00	29.747 
03:10	40.5	40.5	40.5	97	39.7	1	2	90	0.01	29.747 
03:15	40.6	40.6	40.6	97	39.8	1	2	90	0.00	29.742 
03:20	40.8	40.8	40.8	97	40.0	0	2	90	0.01	29.742 
03:25	40.8	40.8	40.8	97	40.0	0	2	90	0.00	29.742 
03:30	40.9	40.9	40.9	97	40.1	0	1	90	0.00	29.735 
03:35	41.1	41.1	41.1	97	40.3	1	2	90	0.00	29.735 
03:40	41.1	41.1	41.1	97	40.3	0	2	90	0.00	29.735 
03:45	41.2	41.2	41.2	97	40.4	0	3	90	0.00	29.728 
03:50	41.3	41.3	41.3	97	40.5	0	2	90	0.00	29.728 
03:55	41.3	41.3	41.3	97	40.5	0	1	112	0.00	29.728 
04:00	41.5	41.5	41.5	97	40.7	0	2	112	0.01	29.723 
04:05	41.6	41.6	41.6	97	40.8	1	3	112	0.01	29.723 
04:10	41.9	41.9	41.9	97	41.1	1	3	112	0.00	29.723 
04:15	42.1	42.1	42.1	97	41.3	1	2	112	0.00	29.695 
04:20	42.2	42.2	42.2	97	41.4	0	0	---	0.00	29.695 
04:25	42.3	42.3	42.3	97	41.5	0	2	112	0.00	29.695 
04:30	42.5	42.5	42.5	97	41.7	0	1	112	0.00	29.693 
04:35	42.8	42.8	42.8	97	42.0	0	0	---	0.00	29.693 
04:40	43.1	43.1	43.1	97	42.3	0	0	---	0.00	29.693 
04:45	43.2	43.2	43.2	97	42.4	0	0	---	0.01	29.683 
04:50	43.3	43.3	43.3	97	42.5	0	0	---	0.00	29.683 
04:55	43.5	43.5	43.5	97	42.7	0	0	---	0.00	29.683 
05:00	43.6	43.6	43.6	98	43.1	0	0	---	0.01	29.689 
05:05	43.6	43.6	43.6	98	43.1	0	0	---	0.00	29.689 
05:10	43.6	43.6	43.6	98	43.1	0	0	---	0.00	29.689 
05:15	43.6	43.6	43.6	98	43.1	0	0	---	0.00	29.678 
05:20	43.6	43.6	43.6	98	43.1	0	1	112	0.00	29.678 
05:25	43.8	43.8	43.8	98	43.3	0	2	112	0.00	29.678 
05:30	44.1	44.1	44.1	98	43.6	0	0	---	0.00	29.666 
05:35	44.1	44.1	44.1	98	43.6	0	0	---	0.00	29.666 
05:40	44.2	44.2	44.2	98	43.7	0	0	---	0.01	29.666 
05:45	44.2	44.2	44.2	98	43.7	0	0	---	0.00	29.663 
05:50	44.5	44.5	44.5	98	44.0	0	1	112	0.00	29.663 
05:55	44.8	44.8	44.8	98	44.3	0	1	112	0.00	29.663 
06:00	45.2	45.2	45.2	98	44.7	0	2	112	0.00	29.645 
06:05	45.7	45.7	45.7	98	45.2	0	2	112	0.00	29.645 
06:10	46.1	46.1	46.1	98	45.6	0	2	112	0.00	29.645 
06:15	46.4	46.4	46.4	98	45.9	0	2	112	0.00	29.640 
06:20	46.5	46.5	46.5	98	46.0	0	1	112	0.00	29.640 
06:25	46.5	46.5	46.5	98	46.0	0	1	112	0.00	29.640 
06:30	46.4	46.4	46.4	98	45.9	0	0	---	0.00	29.628 
06:35	46.4	46.4	46.4	98	45.9	0	2	112	0.00	29.628 
06:40	46.2	46.2	46.2	98	45.7	0	1	112	0.00	29.628 
06:45	46.2	46.2	46.2	98	45.7	0	1	112	0.00	29.630 
06:50	46.2	46.2	46.2	98	45.7	0	1	112	0.00	29.630 
06:55	46.5	46.5	46.5	98	46.0	0	2	135	0.00	29.630 
07:00	46.8	46.8	46.8	98	46.3	0	2	135	0.00	29.627 
07:05	47.0	47.0	47.0	98	46.5	0	2	135	0.00	29.627 
07:10	47.1	47.1	47.1	98	46.6	0	2	135	0.00	29.627 
07:15	47.1	47.1	47.1	98	46.6	0	1	135	0.00	29.628 
07:20	47.1	47.1	47.1	98	46.6	0	0	---	0.00	29.628 
07:25	47.1	47.1	47.1	98	46.6	0	0	---	0.00	29.628 
07:30	47.1	47.1	47.1	98	46.6	0	0	---	0.00	29.634 
07:35	47.0	47.0	47.0	98	46.5	0	0	---	0.00	29.634 
07:40	46.8	46.8	46.8	98	46.3	0	0	---	0.00	29.634 
07:45	47.0	47.0	47.0	98	46.5	0	0	---	0.00	29.638 
07:50	47.0	47.0	47.0	98	46.5	0	0	---	0.00	29.638 
07:55	47.0	47.0	47.0	98	46.5	0	0	---	0.00	29.638 
08:00	46.8	46.8	46.8	98	46.3	0	0	---	0.00	29.631 
08:05	46.5	46.5	46.5	98	46.0	0	0	---	0.00	29.631 
08:10	46.4	46.4	46.4	98	45.9	0	0	---	0.00	29.631 
08:15	46.2	46.2	46.2	98	45.7	0	0	---	0.00	29.626 
08:20	46.2	46.2	46.2	98	45.7	0	0	---	0.00	29.626 
08:25	46.1	46.1	46.1	98	45.6	0	0	---	0.00	29.626 
08:30	46.0	46.0	46.0	98	45.5	0	0	---	0.00	29.617 
08:35	45.8	45.8	45.8	98	45.3	0	2	135	0.00	29.617 
08:40	45.8	45.8	45.8	98	45.3	0	0	---	0.00	29.617 
08:45	46.0	46.0	46.0	98	45.5	0	0	---	0.00	29.617 
08:50	46.0	46.0	46.0	98	45.5	0	1	135	0.00	29.617 
08:55	46.1	46.1	46.1	98	45.6	0	0	---	0.00	29.617 
09:00	46.1	46.1	46.1	98	45.6	0	0	---	0.00	29.620 
09:05	46.4	46.4	46.4	98	45.9	0	2	135	0.00	29.620 
09:10	47.6	47.6	47.6	98	47.1	2	5	270	0.01	29.620 
09:15	47.3	47.3	47.3	98	46.8	1	3	270	0.00	29.636 
09:20	47.1	47.1	47.1	98	46.6	1	3	270	0.00	29.636 
09:25	46.8	46.8	46.8	98	46.3	1	3	270	0.00	29.636 
09:30	46.7	46.7	46.7	98	46.2	0	2	270	0.00	29.639 
09:35	46.7	46.7	46.7	98	46.2	0	1	270	0.00	29.639 
09:40	46.8	46.8	46.8	98	46.3	0	1	270	0.00	29.639 
09:45	46.8	46.8	46.8	98	46.3	0	2	270	0.00	29.643 
09:50	47.0	47.0	47.0	98	46.5	0	1	270	0.00	29.643 
09:55	47.0	47.0	47.0	98	46.5	1	3	270	0.00	29.643 
10:00	47.0	47.0	47.0	98	46.5	1	4	270	0.00	29.642 
10:05	47.1	47.1	47.1	98	46.6	2	5	248	0.00	29.642 
10:10	47.1	47.1	47.1	98	46.6	1	6	248	0.00	29.642 
10:15	47.1	47.1	47.1	98	46.6	2	5	248	0.00	29.650 
10:20	47.3	47.3	47.3	98	46.8	2	5	270	0.00	29.650 
10:25	47.4	47.4	47.4	98	46.9	1	3	248	0.00	29.650 
10:30	47.6	47.6	47.6	98	47.1	1	3	248	0.00	29.649 
10:35	47.6	47.6	47.6	98	47.1	1	5	248	0.00	29.649 
10:40	47.6	47.6	47.6	98	47.1	1	3	225	0.00	29.649 
10:45	47.6	47.6	47.6	98	47.1	1	4	248	0.00	29.655 
10:50	47.6	47.6	47.6	98	47.1	1	3	248	0.00	29.655 
10:55	47.7	47.7	47.7	98	47.2	1	4	248	0.00	29.655 
11:00	47.6	47.6	47.6	98	47.1	1	3	248	0.00	29.664 
11:05	47.6	47.6	47.6	98	47.1	1	6	248	0.00	29.664 
11:10	47.4	47.4	47.4	98	46.9	1	3	248	0.00	29.664 
11:15	47.3	47.3	47.3	98	46.8	1	3	248	0.00	29.660 
11:20	47.3	47.3	47.3	98	46.8	1	4	248	0.00	29.660 
11:25	47.4	47.4	47.4	98	46.9	2	5	248	0.00	29.660 
11:30	47.4	47.4	47.4	98	46.9	1	4	292	0.00	29.660 
11:35	47.4	47.4	47.4	98	46.9	1	4	248	0.00	29.660 
11:40	47.3	47.3	47.3	98	46.8	2	9	248	0.00	29.660 
11:45	47.1	47.1	47.1	98	46.6	2	5	248	0.00	29.658 
11:50	47.0	47.0	47.0	98	46.5	2	5	270	0.00	29.658 
11:55	47.0	47.0	47.0	98	46.5	2	6	248	0.00	29.658 
12:00	47.0	47.0	47.0	98	46.5	1	4	248	0.00	29.657 
12:05	46.8	46.8	46.8	98	46.3	3	6	248	0.00	29.657 
12:10	47.0	47.0	47.0	98	46.5	2	4	248	0.00	29.657 
12:15	47.0	47.0	47.0	98	46.5	3	6	248	0.00	29.655 
12:20	47.0	47.0	47.0	98	46.5	3	7	248	0.00	29.655 
12:25	47.0	47.0	47.0	98	46.5	2	7	270	0.00	29.655 
12:30	46.8	45.2	46.8	98	46.3	4	8	270	0.00	29.651 
12:35	46.7	46.7	46.7	97	45.9	3	10	270	0.00	29.651 
12:40	46.4	44.7	46.4	97	45.6	4	9	270	0.00	29.651 
12:45	46.4	46.4	46.4	97	45.6	3	8	270	0.00	29.659 
12:50	46.5	46.5	46.5	97	45.7	2	4	270	0.00	29.659 
12:55	46.5	46.5	46.5	97	45.7	3	11	248	0.00	29.659 
13:00	46.4	46.4	46.4	97	45.6	3	6	270	0.00	29.659 
13:05	46.4	44.7	46.4	97	45.6	4	6	270	0.00	29.659 
13:10	46.4	44.7	46.4	96	45.3	4	7	270	0.00	29.659 
13:15	46.2	44.5	46.2	96	45.1	4	7	270	0.00	29.665 
13:20	46.2	44.5	46.2	95	44.8	4	9	270	0.00	29.665 
13:25	46.2	44.5	46.2	94	44.6	4	10	270	0.00	29.665 
13:30	46.1	44.4	46.1	94	44.5	4	7	270	0.00	29.672 
13:35	46.2	46.2	46.2	93	44.3	3	6	270	0.00	29.672 
13:40	46.1	44.4	46.1	92	43.9	4	8	270	0.00	29.672 
13:45	46.1	44.4	46.1	92	43.9	4	6	270	0.00	29.680 
13:50	46.0	46.0	46.0	91	43.5	3	6	270	0.00	29.680 
13:55	45.8	44.0	45.8	90	43.0	4	9	270	0.00	29.680 
14:00	46.0	46.0	46.0	90	43.2	3	6	270	0.00	29.673 
14:05	46.0	44.2	46.0	89	42.9	4	9	248	0.00	29.673 
14:10	45.8	44.0	45.8	89	42.7	4	9	270	0.00	29.673 
14:15	45.8	45.8	45.8	89	42.7	3	5	270	0.00	29.683 
14:20	45.8	45.8	45.8	89	42.7	3	5	292	0.00	29.683 
14:25	45.8	44.0	45.8	88	42.5	4	9	270	0.00	29.683 
14:30	45.7	43.9	45.7	88	42.4	4	9	270	0.00	29.694 
14:35	45.7	45.7	45.7	88	42.4	3	6	270	0.00	29.694 
14:40	45.7	45.7	45.7	88	42.4	3	7	270	0.00	29.694 
14:45	45.5	45.5	45.5	87	41.9	3	6	270	0.00	29.700 
14:50	45.5	45.5	45.5	87	41.9	3	6	270	0.00	29.700 
14:55	45.4	45.4	45.4	87	41.8	3	7	248	0.00	29.700 
15:00	45.4	45.4	45.4	87	41.8	3	6	248	0.00	29.711 
15:05	45.4	45.4	45.4	87	41.8	3	7	270	0.00	29.711 
15:10	45.4	45.4	45.4	87	41.8	3	6	270	0.00	29.711 
15:15	45.4	45.4	45.4	87	41.8	3	5	270	0.00	29.724 
15:20	45.4	45.4	45.4	87	41.8	3	7	248	0.00	29.724 
15:25	45.4	45.4	45.4	87	41.8	3	6	248	0.00	29.724 
15:30	45.2	43.3	45.2	87	41.6	4	9	270	0.00	29.738 
15:35	45.2	45.2	45.2	87	41.6	3	9	248	0.00	29.738 
15:40	45.2	45.2	45.2	87	41.6	3	6	248	0.00	29.738 
15:45	45.1	45.1	45.1	87	41.5	3	6	270	0.00	29.749 
15:50	45.1	45.1	45.1	87	41.5	2	5	248	0.00	29.749 
15:55	45.1	45.1	45.1	88	41.8	3	10	248	0.00	29.749 
16:00	45.1	45.1	45.1	88	41.8	3	6	248	0.01	29.750 
16:05	45.1	45.1	45.1	88	41.8	2	7	248	0.00	29.750 
16:10	44.9	44.9	44.9	88	41.6	2	5	248	0.00	29.750 
16:15	44.9	44.9	44.9	87	41.3	2	4	248	0.00	29.761 
16:20	44.9	44.9	44.9	87	41.3	3	9	248	0.00	29.761 
16:25	44.8	44.8	44.8	87	41.2	3	7	248	0.00	29.761 
16:30	44.8	44.8	44.8	87	41.2	3	5	248	0.00	29.761 
16:35	44.8	44.8	44.8	87	41.2	3	9	248	0.00	29.761 
16:40	44.8	44.8	44.8	87	41.2	3	7	248	0.00	29.761 
16:45	44.8	44.8	44.8	86	40.9	2	10	248	0.00	29.772 
16:50	44.8	44.8	44.8	86	40.9	3	6	248	0.00	29.772 
16:55	44.8	44.8	44.8	86	40.9	3	9	270	0.00	29.772 
17:00	44.6	44.6	44.6	86	40.7	3	9	270	0.00	29.786 
17:05	44.6	44.6	44.6	86	40.7	3	5	270	0.00	29.786 
17:10	44.6	44.6	44.6	86	40.7	3	7	270	0.00	29.786 
17:15	44.5	42.5	44.5	85	40.3	4	7	270	0.00	29.801 
17:20	44.5	44.5	44.5	85	40.3	3	7	270	0.00	29.801 
17:25	44.5	42.5	44.5	84	40.0	4	7	270	0.00	29.801 
17:30	44.3	44.3	44.3	84	39.8	3	9	248	0.00	29.812 
17:35	44.3	42.3	44.3	84	39.8	4	9	270	0.00	29.812 
17:40	44.3	42.3	44.3	84	39.8	4	10	270	0.00	29.812 
17:45	44.2	44.2	44.2	84	39.7	3	5	270	0.00	29.823 
17:50	44.2	44.2	44.2	84	39.7	2	5	292	0.00	29.823 
17:55	44.2	44.2	44.2	84	39.7	3	6	292	0.00	29.823 
18:00	44.1	44.1	44.1	84	39.6	3	7	270	0.00	29.831 
18:05	44.1	44.1	44.1	85	39.9	3	7	270	0.00	29.831 
18:10	43.9	43.9	43.9	85	39.7	2	6	270	0.00	29.831 
18:15	43.9	43.9	43.9	85	39.7	3	7	248	0.00	29.839 
18:20	43.9	43.9	43.9	85	39.7	2	4	270	0.00	29.839 
18:25	43.8	43.8	43.8	86	39.9	1	4	248	0.00	29.839 
18:30	43.8	43.8	43.8	86	39.9	1	4	248	0.00	29.842 
18:35	43.6	43.6	43.6	86	39.7	1	4	248	0.00	29.842 
18:40	43.5	43.5	43.5	86	39.6	3	6	248	0.00	29.842 
18:45	43.5	43.5	43.5	87	39.9	2	7	248	0.00	29.845 
18:50	43.3	43.3	43.3	87	39.7	1	6	248	0.00	29.845 
18:55	43.3	43.3	43.3	87	39.7	1	6	248	0.00	29.845 
19:00	43.2	43.2	43.2	87	39.6	1	5	248	0.00	29.852 
19:05	43.2	43.2	43.2	87	39.6	2	3	248	0.00	29.852 
19:10	43.2	43.2	43.2	87	39.6	2	4	248	0.00	29.852 
19:15	43.2	43.2	43.2	87	39.6	2	5	248	0.00	29.860 
19:20	43.2	43.2	43.2	87	39.6	1	3	248	0.00	29.860 
19:25	43.2	43.2	43.2	87	39.6	2	5	248	0.00	29.860 
19:30	43.1	43.1	43.1	87	39.5	2	5	270	0.00	29.871 
19:35	43.1	43.1	43.1	88	39.8	1	3	248	0.00	29.871 
19:40	43.1	43.1	43.1	88	39.8	1	2	248	0.00	29.871 
19:45	43.1	43.1	43.1	88	39.8	2	5	248	0.00	29.881 
19:50	43.1	43.1	43.1	88	39.8	1	5	248	0.00	29.881 
19:55	43.1	43.1	43.1	88	39.8	1	4	270	0.00	29.881 
20:00	43.1	43.1	43.1	88	39.8	2	6	248	0.00	29.888 
20:05	43.1	43.1	43.1	88	39.8	1	3	248	0.00	29.888 
20:10	43.1	43.1	43.1	88	39.8	2	5	248	0.00	29.888 
20:15	43.1	43.1	43.1	88	39.8	1	4	248	0.00	29.891 
20:20	42.9	42.9	42.9	88	39.6	1	4	248	0.00	29.891 
20:25	42.9	42.9	42.9	88	39.6	2	4	248	0.00	29.891 
20:30	42.9	42.9	42.9	88	39.6	2	4	248	0.00	29.891 
20:35	42.8	42.8	42.8	88	39.5	2	5	270	0.00	29.891 
20:40	42.8	42.8	42.8	88	39.5	2	5	270	0.00	29.891 
20:45	42.8	42.8	42.8	89	39.8	2	3	270	0.00	29.903 
20:50	42.8	42.8	42.8	89	39.8	2	4	270	0.00	29.903 
20:55	42.6	42.6	42.6	89	39.6	0	2	270	0.00	29.903 
21:00	42.6	42.6	42.6	89	39.6	1	4	270	0.00	29.908 
21:05	42.6	42.6	42.6	90	39.9	1	4	270	0.00	29.908 
21:10	42.5	42.5	42.5	90	39.8	1	4	270	0.00	29.908 
21:15	42.5	42.5	42.5	91	40.1	1	3	248	0.00	29.913 
21:20	42.3	42.3	42.3	91	39.9	0	2	248	0.00	29.913 
21:25	42.3	42.3	42.3	91	39.9	0	2	248	0.00	29.913 
21:30	42.3	42.3	42.3	92	40.1	0	2	248	0.00	29.921 
21:35	42.2	42.2	42.2	92	40.0	0	3	248	0.00	29.921 
21:40	42.2	42.2	42.2	92	40.0	2	7	248	0.00	29.921 
21:45	42.2	42.2	42.2	92	40.0	2	4	248	0.00	29.928 
21:50	42.1	42.1	42.1	92	39.9	2	7	248	0.00	29.928 
21:55	41.9	41.9	41.9	92	39.7	2	4	248	0.00	29.928 
22:00	41.9	41.9	41.9	92	39.7	2	4	248	0.00	29.937 
22:05	41.8	41.8	41.8	92	39.6	3	6	270	0.00	29.937 
22:10	41.8	41.8	41.8	92	39.6	1	3	248	0.00	29.937 
22:15	41.6	41.6	41.6	91	39.2	1	3	248	0.00	29.933 
22:20	41.6	41.6	41.6	91	39.2	1	3	248	0.00	29.933 
22:25	41.6	41.6	41.6	90	38.9	0	2	248	0.00	29.933 
22:30	41.6	41.6	41.6	90	38.9	0	2	248	0.00	29.931 
22:35	41.6	41.6	41.6	89	38.6	0	2	248	0.00	29.931 
22:40	41.6	41.6	41.6	89	38.6	1	3	248	0.00	29.931 
22:45	41.6	41.6	41.6	89	38.6	1	3	248	0.00	29.936 
22:50	41.8	41.8	41.8	88	38.5	1	3	248	0.00	29.936 
22:55	41.8	41.8	41.8	88	38.5	0	2	248	0.00	29.936 
23:00	41.8	41.8	41.8	88	38.5	0	3	248	0.00	29.942 
23:05	41.8	41.8	41.8	88	38.5	1	3	248	0.00	29.942 
23:10	41.8	41.8	41.8	88	38.5	1	4	248	0.00	29.942 
23:15	41.8	41.8	41.8	88	38.5	0	2	248	0.00	29.951 
23:20	41.6	41.6	41.6	88	38.3	2	5	225	0.00	29.951 
23:25	41.6	41.6	41.6	88	38.3	0	2	248	0.00	29.951 
23:30	41.6	41.6	41.6	88	38.3	1	3	248	0.00	29.953 
23:35	41.6	41.6	41.6	88	38.3	1	5	248	0.00	29.953 
23:40	41.6	41.6	41.6	88	38.3	2	5	270	0.00	29.953 
23:45	41.6	41.6	41.6	88	38.3	1	5	248	0.00	29.956 
23:50	41.6	41.6	41.6	88	38.3	1	6	248	0.00	29.956 
23:55	41.6	41.6	41.6	88	38.3	1	4	248	0.00	29.956 

CoCoRaHS
IN-AL-39
A2 Web Hosting
Creative Commons License
GoDaddy
search engine by freefind advanced

loaded 2018-11-15 04:15:35 • last modified 2010-11-18 10:43:29
Privacy PolicyDisclaimer
• wx.awcolley.com is powered by PmWiki v.2002016 •
• all content (unless otherwise noted) © 2018 A W Colley